sensor_id;sensor_type;location;lat;lon;timestamp;P1;durP1;ratioP1;P2;durP2;ratioP2
29500;SDS011;16450;50.288;10.966;2022-09-24T00:01:56;6.93;;;5.30;;
29500;SDS011;16450;50.288;10.966;2022-09-24T00:04:56;9.33;;;5.80;;
29500;SDS011;16450;50.288;10.966;2022-09-24T00:07:57;7.97;;;5.53;;
29500;SDS011;16450;50.288;10.966;2022-09-24T00:11:02;7.50;;;5.30;;
29500;SDS011;16450;50.288;10.966;2022-09-24T00:14:05;8.57;;;5.77;;
29500;SDS011;16450;50.288;10.966;2022-09-24T00:17:06;7.37;;;5.80;;
29500;SDS011;16450;50.288;10.966;2022-09-24T00:20:06;9.70;;;5.97;;
29500;SDS011;16450;50.288;10.966;2022-09-24T00:23:08;8.00;;;5.90;;
29500;SDS011;16450;50.288;10.966;2022-09-24T00:26:10;9.57;;;6.10;;
29500;SDS011;16450;50.288;10.966;2022-09-24T00:29:29;7.47;;;5.63;;
29500;SDS011;16450;50.288;10.966;2022-09-24T00:32:33;7.80;;;5.03;;
29500;SDS011;16450;50.288;10.966;2022-09-24T00:35:34;6.80;;;5.10;;
29500;SDS011;16450;50.288;10.966;2022-09-24T00:38:35;7.80;;;5.00;;
29500;SDS011;16450;50.288;10.966;2022-09-24T00:41:36;8.33;;;5.53;;
29500;SDS011;16450;50.288;10.966;2022-09-24T00:47:44;6.60;;;5.30;;
29500;SDS011;16450;50.288;10.966;2022-09-24T00:50:45;7.50;;;5.40;;
29500;SDS011;16450;50.288;10.966;2022-09-24T00:53:48;8.63;;;5.90;;
29500;SDS011;16450;50.288;10.966;2022-09-24T00:56:51;9.10;;;5.43;;
29500;SDS011;16450;50.288;10.966;2022-09-24T00:59:53;6.27;;;5.00;;
29500;SDS011;16450;50.288;10.966;2022-09-24T01:02:59;8.10;;;5.50;;
29500;SDS011;16450;50.288;10.966;2022-09-24T01:06:02;8.30;;;5.40;;
29500;SDS011;16450;50.288;10.966;2022-09-24T01:09:03;8.13;;;5.07;;
29500;SDS011;16450;50.288;10.966;2022-09-24T01:18:34;7.43;;;4.67;;
29500;SDS011;16450;50.288;10.966;2022-09-24T01:21:55;9.10;;;5.23;;
29500;SDS011;16450;50.288;10.966;2022-09-24T01:25:05;8.23;;;5.23;;
29500;SDS011;16450;50.288;10.966;2022-09-24T01:28:22;9.93;;;5.30;;
29500;SDS011;16450;50.288;10.966;2022-09-24T01:31:49;6.80;;;5.17;;
29500;SDS011;16450;50.288;10.966;2022-09-24T01:38:39;9.37;;;5.87;;
29500;SDS011;16450;50.288;10.966;2022-09-24T01:41:43;7.77;;;5.07;;
29500;SDS011;16450;50.288;10.966;2022-09-24T01:44:44;8.90;;;5.30;;
29500;SDS011;16450;50.288;10.966;2022-09-24T01:47:47;10.93;;;5.87;;
29500;SDS011;16450;50.288;10.966;2022-09-24T01:50:50;6.93;;;4.87;;
29500;SDS011;16450;50.288;10.966;2022-09-24T01:54:15;7.80;;;5.00;;
29500;SDS011;16450;50.288;10.966;2022-09-24T01:57:40;7.73;;;5.27;;
29500;SDS011;16450;50.288;10.966;2022-09-24T02:00:44;6.87;;;5.10;;
29500;SDS011;16450;50.288;10.966;2022-09-24T02:03:50;8.70;;;6.13;;
29500;SDS011;16450;50.288;10.966;2022-09-24T02:10:05;6.77;;;5.23;;
29500;SDS011;16450;50.288;10.966;2022-09-24T02:13:13;8.57;;;5.30;;
29500;SDS011;16450;50.288;10.966;2022-09-24T02:16:18;8.60;;;4.80;;
29500;SDS011;16450;50.288;10.966;2022-09-24T02:19:23;5.60;;;4.27;;
29500;SDS011;16450;50.288;10.966;2022-09-24T02:22:28;6.63;;;4.40;;
29500;SDS011;16450;50.288;10.966;2022-09-24T02:25:35;7.67;;;4.80;;
29500;SDS011;16450;50.288;10.966;2022-09-24T02:28:40;7.13;;;4.90;;
29500;SDS011;16450;50.288;10.966;2022-09-24T02:31:45;7.57;;;5.17;;
29500;SDS011;16450;50.288;10.966;2022-09-24T02:34:49;6.60;;;5.20;;
29500;SDS011;16450;50.288;10.966;2022-09-24T02:37:53;7.77;;;5.87;;
29500;SDS011;16450;50.288;10.966;2022-09-24T02:40:54;9.97;;;5.83;;
29500;SDS011;16450;50.288;10.966;2022-09-24T02:43:55;8.07;;;5.67;;
29500;SDS011;16450;50.288;10.966;2022-09-24T02:46:56;9.97;;;6.10;;
29500;SDS011;16450;50.288;10.966;2022-09-24T02:49:57;8.20;;;5.30;;
29500;SDS011;16450;50.288;10.966;2022-09-24T02:52:57;7.10;;;5.70;;
29500;SDS011;16450;50.288;10.966;2022-09-24T02:55:58;7.33;;;5.30;;
29500;SDS011;16450;50.288;10.966;2022-09-24T02:58:59;6.87;;;5.40;;
29500;SDS011;16450;50.288;10.966;2022-09-24T03:02:01;6.07;;;5.13;;
29500;SDS011;16450;50.288;10.966;2022-09-24T03:05:02;7.47;;;5.60;;
29500;SDS011;16450;50.288;10.966;2022-09-24T03:08:03;7.27;;;5.00;;
29500;SDS011;16450;50.288;10.966;2022-09-24T03:11:04;5.60;;;4.93;;
29500;SDS011;16450;50.288;10.966;2022-09-24T03:14:05;6.60;;;4.93;;
29500;SDS011;16450;50.288;10.966;2022-09-24T03:17:06;7.90;;;5.57;;
29500;SDS011;16450;50.288;10.966;2022-09-24T03:20:06;8.47;;;4.70;;
29500;SDS011;16450;50.288;10.966;2022-09-24T03:23:07;6.60;;;5.17;;
29500;SDS011;16450;50.288;10.966;2022-09-24T03:26:08;6.23;;;4.80;;
29500;SDS011;16450;50.288;10.966;2022-09-24T03:29:09;6.73;;;5.07;;
29500;SDS011;16450;50.288;10.966;2022-09-24T03:32:10;7.70;;;5.57;;
29500;SDS011;16450;50.288;10.966;2022-09-24T03:35:10;6.73;;;5.20;;
29500;SDS011;16450;50.288;10.966;2022-09-24T03:38:11;7.60;;;5.00;;
29500;SDS011;16450;50.288;10.966;2022-09-24T03:41:12;6.77;;;4.93;;
29500;SDS011;16450;50.288;10.966;2022-09-24T03:44:13;6.83;;;5.10;;
29500;SDS011;16450;50.288;10.966;2022-09-24T03:47:14;6.53;;;5.40;;
29500;SDS011;16450;50.288;10.966;2022-09-24T03:50:15;6.40;;;5.23;;
29500;SDS011;16450;50.288;10.966;2022-09-24T03:53:16;7.47;;;5.10;;
29500;SDS011;16450;50.288;10.966;2022-09-24T03:56:17;7.23;;;5.20;;
29500;SDS011;16450;50.288;10.966;2022-09-24T03:59:18;6.40;;;5.17;;
29500;SDS011;16450;50.288;10.966;2022-09-24T04:02:18;5.80;;;4.93;;
29500;SDS011;16450;50.288;10.966;2022-09-24T04:05:19;8.70;;;5.50;;
29500;SDS011;16450;50.288;10.966;2022-09-24T04:08:20;7.17;;;5.20;;
29500;SDS011;16450;50.288;10.966;2022-09-24T04:11:23;8.10;;;5.30;;
29500;SDS011;16450;50.288;10.966;2022-09-24T04:14:24;7.93;;;5.57;;
29500;SDS011;16450;50.288;10.966;2022-09-24T04:17:24;7.47;;;6.00;;
29500;SDS011;16450;50.288;10.966;2022-09-24T04:20:30;7.10;;;5.57;;
29500;SDS011;16450;50.288;10.966;2022-09-24T04:23:31;6.47;;;5.00;;
29500;SDS011;16450;50.288;10.966;2022-09-24T04:26:32;6.63;;;5.23;;
29500;SDS011;16450;50.288;10.966;2022-09-24T04:29:33;6.37;;;5.13;;
29500;SDS011;16450;50.288;10.966;2022-09-24T04:32:33;16.03;;;6.03;;
29500;SDS011;16450;50.288;10.966;2022-09-24T04:35:34;6.17;;;4.80;;
29500;SDS011;16450;50.288;10.966;2022-09-24T04:38:35;9.00;;;5.50;;
29500;SDS011;16450;50.288;10.966;2022-09-24T04:41:38;6.90;;;5.07;;
29500;SDS011;16450;50.288;10.966;2022-09-24T04:44:39;6.20;;;4.90;;
29500;SDS011;16450;50.288;10.966;2022-09-24T04:47:40;9.70;;;5.10;;
29500;SDS011;16450;50.288;10.966;2022-09-24T04:50:40;7.83;;;5.00;;
29500;SDS011;16450;50.288;10.966;2022-09-24T04:53:41;7.43;;;5.03;;
29500;SDS011;16450;50.288;10.966;2022-09-24T04:56:41;6.13;;;5.10;;
29500;SDS011;16450;50.288;10.966;2022-09-24T04:59:42;6.77;;;5.07;;
29500;SDS011;16450;50.288;10.966;2022-09-24T05:02:43;8.77;;;5.70;;
29500;SDS011;16450;50.288;10.966;2022-09-24T05:05:44;8.07;;;5.43;;
29500;SDS011;16450;50.288;10.966;2022-09-24T05:08:45;6.87;;;5.10;;
29500;SDS011;16450;50.288;10.966;2022-09-24T05:11:45;5.33;;;4.47;;
29500;SDS011;16450;50.288;10.966;2022-09-24T05:14:46;6.07;;;4.77;;
29500;SDS011;16450;50.288;10.966;2022-09-24T05:17:47;7.63;;;5.00;;
29500;SDS011;16450;50.288;10.966;2022-09-24T05:20:48;6.17;;;4.73;;
29500;SDS011;16450;50.288;10.966;2022-09-24T05:23:48;8.23;;;4.97;;
29500;SDS011;16450;50.288;10.966;2022-09-24T05:26:49;7.27;;;4.70;;
29500;SDS011;16450;50.288;10.966;2022-09-24T05:30:09;6.07;;;4.33;;
29500;SDS011;16450;50.288;10.966;2022-09-24T05:33:09;7.63;;;5.30;;
29500;SDS011;16450;50.288;10.966;2022-09-24T05:36:10;6.77;;;5.37;;
29500;SDS011;16450;50.288;10.966;2022-09-24T05:39:11;10.10;;;5.50;;
29500;SDS011;16450;50.288;10.966;2022-09-24T05:42:12;8.10;;;5.10;;
29500;SDS011;16450;50.288;10.966;2022-09-24T05:45:13;6.70;;;5.40;;
29500;SDS011;16450;50.288;10.966;2022-09-24T05:48:17;8.60;;;5.23;;
29500;SDS011;16450;50.288;10.966;2022-09-24T05:51:17;7.90;;;5.60;;
29500;SDS011;16450;50.288;10.966;2022-09-24T05:54:18;6.77;;;5.03;;
29500;SDS011;16450;50.288;10.966;2022-09-24T05:57:19;7.07;;;4.80;;
29500;SDS011;16450;50.288;10.966;2022-09-24T06:00:20;5.67;;;4.83;;
29500;SDS011;16450;50.288;10.966;2022-09-24T06:03:20;6.87;;;5.10;;
29500;SDS011;16450;50.288;10.966;2022-09-24T06:06:21;8.20;;;5.10;;
29500;SDS011;16450;50.288;10.966;2022-09-24T06:09:23;5.27;;;4.07;;
29500;SDS011;16450;50.288;10.966;2022-09-24T06:12:23;9.37;;;4.83;;
29500;SDS011;16450;50.288;10.966;2022-09-24T06:15:24;6.97;;;5.13;;
29500;SDS011;16450;50.288;10.966;2022-09-24T06:18:26;6.80;;;4.67;;
29500;SDS011;16450;50.288;10.966;2022-09-24T06:21:26;8.90;;;5.17;;
29500;SDS011;16450;50.288;10.966;2022-09-24T06:24:27;6.67;;;5.27;;
29500;SDS011;16450;50.288;10.966;2022-09-24T06:27:28;5.73;;;5.00;;
29500;SDS011;16450;50.288;10.966;2022-09-24T06:30:29;7.73;;;5.80;;
29500;SDS011;16450;50.288;10.966;2022-09-24T06:33:40;8.80;;;5.90;;
29500;SDS011;16450;50.288;10.966;2022-09-24T06:36:41;7.20;;;5.80;;
29500;SDS011;16450;50.288;10.966;2022-09-24T06:39:42;10.20;;;5.97;;
29500;SDS011;16450;50.288;10.966;2022-09-24T06:42:42;8.00;;;6.07;;
29500;SDS011;16450;50.288;10.966;2022-09-24T06:45:43;10.33;;;6.50;;
29500;SDS011;16450;50.288;10.966;2022-09-24T06:48:44;10.40;;;6.30;;
29500;SDS011;16450;50.288;10.966;2022-09-24T06:51:48;12.90;;;7.23;;
29500;SDS011;16450;50.288;10.966;2022-09-24T06:54:48;8.40;;;6.57;;
29500;SDS011;16450;50.288;10.966;2022-09-24T06:57:49;10.30;;;6.77;;
29500;SDS011;16450;50.288;10.966;2022-09-24T07:00:51;9.17;;;6.90;;
29500;SDS011;16450;50.288;10.966;2022-09-24T07:03:52;8.33;;;6.40;;
29500;SDS011;16450;50.288;10.966;2022-09-24T07:06:53;8.53;;;6.40;;
29500;SDS011;16450;50.288;10.966;2022-09-24T07:10:12;7.63;;;6.33;;
29500;SDS011;16450;50.288;10.966;2022-09-24T07:13:14;11.23;;;6.67;;
29500;SDS011;16450;50.288;10.966;2022-09-24T07:16:15;8.90;;;6.50;;
29500;SDS011;16450;50.288;10.966;2022-09-24T07:19:15;11.63;;;5.80;;
29500;SDS011;16450;50.288;10.966;2022-09-24T07:22:16;8.07;;;5.70;;
29500;SDS011;16450;50.288;10.966;2022-09-24T07:25:17;8.83;;;5.80;;
29500;SDS011;16450;50.288;10.966;2022-09-24T07:28:17;8.30;;;5.40;;
29500;SDS011;16450;50.288;10.966;2022-09-24T07:31:18;7.23;;;5.13;;
29500;SDS011;16450;50.288;10.966;2022-09-24T07:34:19;6.87;;;5.80;;
29500;SDS011;16450;50.288;10.966;2022-09-24T07:37:19;6.67;;;5.70;;
29500;SDS011;16450;50.288;10.966;2022-09-24T07:40:21;7.67;;;5.80;;
29500;SDS011;16450;50.288;10.966;2022-09-24T07:43:23;6.90;;;5.80;;
29500;SDS011;16450;50.288;10.966;2022-09-24T07:46:24;9.87;;;6.07;;
29500;SDS011;16450;50.288;10.966;2022-09-24T07:49:25;9.60;;;6.17;;
29500;SDS011;16450;50.288;10.966;2022-09-24T07:52:28;6.87;;;5.80;;
29500;SDS011;16450;50.288;10.966;2022-09-24T07:55:28;6.83;;;5.83;;
29500;SDS011;16450;50.288;10.966;2022-09-24T07:58:29;7.63;;;5.60;;
29500;SDS011;16450;50.288;10.966;2022-09-24T08:01:30;7.57;;;5.57;;
29500;SDS011;16450;50.288;10.966;2022-09-24T08:04:30;6.67;;;5.40;;
29500;SDS011;16450;50.288;10.966;2022-09-24T08:07:31;7.83;;;6.07;;
29500;SDS011;16450;50.288;10.966;2022-09-24T08:10:32;8.93;;;6.10;;
29500;SDS011;16450;50.288;10.966;2022-09-24T08:13:32;7.77;;;5.73;;
29500;SDS011;16450;50.288;10.966;2022-09-24T08:16:33;8.07;;;5.73;;
29500;SDS011;16450;50.288;10.966;2022-09-24T08:19:34;9.00;;;6.07;;
29500;SDS011;16450;50.288;10.966;2022-09-24T08:22:34;6.83;;;5.30;;
29500;SDS011;16450;50.288;10.966;2022-09-24T08:25:35;6.80;;;5.93;;
29500;SDS011;16450;50.288;10.966;2022-09-24T08:28:36;9.00;;;6.40;;
29500;SDS011;16450;50.288;10.966;2022-09-24T08:31:36;8.10;;;5.90;;
29500;SDS011;16450;50.288;10.966;2022-09-24T08:34:37;8.47;;;5.97;;
29500;SDS011;16450;50.288;10.966;2022-09-24T08:37:39;8.73;;;6.37;;
29500;SDS011;16450;50.288;10.966;2022-09-24T08:40:44;7.80;;;5.73;;
29500;SDS011;16450;50.288;10.966;2022-09-24T08:44:09;7.20;;;5.30;;
29500;SDS011;16450;50.288;10.966;2022-09-24T08:47:42;6.10;;;4.67;;
29500;SDS011;16450;50.288;10.966;2022-09-24T08:50:55;6.43;;;4.60;;
29500;SDS011;16450;50.288;10.966;2022-09-24T08:54:13;7.50;;;4.67;;
29500;SDS011;16450;50.288;10.966;2022-09-24T08:57:15;7.37;;;4.67;;
29500;SDS011;16450;50.288;10.966;2022-09-24T09:00:17;5.33;;;4.77;;
29500;SDS011;16450;50.288;10.966;2022-09-24T09:03:23;5.30;;;4.60;;
29500;SDS011;16450;50.288;10.966;2022-09-24T09:09:53;5.77;;;4.67;;
29500;SDS011;16450;50.288;10.966;2022-09-24T09:13:14;6.43;;;4.83;;
29500;SDS011;16450;50.288;10.966;2022-09-24T09:19:54;6.53;;;5.27;;
29500;SDS011;16450;50.288;10.966;2022-09-24T09:22:57;6.10;;;5.47;;
29500;SDS011;16450;50.288;10.966;2022-09-24T09:26:04;6.67;;;5.07;;
29500;SDS011;16450;50.288;10.966;2022-09-24T09:29:09;6.53;;;5.33;;
29500;SDS011;16450;50.288;10.966;2022-09-24T09:32:21;8.30;;;6.20;;
29500;SDS011;16450;50.288;10.966;2022-09-24T09:35:36;9.93;;;6.10;;
29500;SDS011;16450;50.288;10.966;2022-09-24T09:42:29;6.63;;;5.43;;
29500;SDS011;16450;50.288;10.966;2022-09-24T09:45:36;7.73;;;5.50;;
29500;SDS011;16450;50.288;10.966;2022-09-24T09:48:49;6.53;;;5.53;;
29500;SDS011;16450;50.288;10.966;2022-09-24T09:51:53;6.47;;;5.10;;
29500;SDS011;16450;50.288;10.966;2022-09-24T09:54:56;6.80;;;5.43;;
29500;SDS011;16450;50.288;10.966;2022-09-24T09:58:06;8.67;;;6.17;;
29500;SDS011;16450;50.288;10.966;2022-09-24T10:01:14;6.57;;;5.43;;
29500;SDS011;16450;50.288;10.966;2022-09-24T10:04:26;7.13;;;5.50;;
29500;SDS011;16450;50.288;10.966;2022-09-24T10:07:28;6.57;;;5.37;;
29500;SDS011;16450;50.288;10.966;2022-09-24T10:10:30;5.73;;;4.80;;
29500;SDS011;16450;50.288;10.966;2022-09-24T10:13:31;6.63;;;5.00;;
29500;SDS011;16450;50.288;10.966;2022-09-24T10:16:38;6.70;;;4.97;;
29500;SDS011;16450;50.288;10.966;2022-09-24T10:19:44;7.40;;;5.30;;
29500;SDS011;16450;50.288;10.966;2022-09-24T10:22:50;5.50;;;4.97;;
29500;SDS011;16450;50.288;10.966;2022-09-24T10:25:58;6.37;;;4.87;;
29500;SDS011;16450;50.288;10.966;2022-09-24T10:29:00;8.47;;;5.30;;
29500;SDS011;16450;50.288;10.966;2022-09-24T10:32:21;7.40;;;5.00;;
29500;SDS011;16450;50.288;10.966;2022-09-24T10:35:33;7.47;;;5.23;;
29500;SDS011;16450;50.288;10.966;2022-09-24T10:38:37;6.00;;;5.00;;
29500;SDS011;16450;50.288;10.966;2022-09-24T10:41:44;5.93;;;4.60;;
29500;SDS011;16450;50.288;10.966;2022-09-24T10:44:46;5.83;;;4.50;;
29500;SDS011;16450;50.288;10.966;2022-09-24T10:50:57;5.60;;;4.70;;
29500;SDS011;16450;50.288;10.966;2022-09-24T11:01:13;4.77;;;4.13;;
29500;SDS011;16450;50.288;10.966;2022-09-24T11:04:28;8.00;;;4.53;;
29500;SDS011;16450;50.288;10.966;2022-09-24T11:08:03;6.37;;;4.03;;
29500;SDS011;16450;50.288;10.966;2022-09-24T11:11:13;5.27;;;3.83;;
29500;SDS011;16450;50.288;10.966;2022-09-24T11:14:26;5.50;;;3.50;;
29500;SDS011;16450;50.288;10.966;2022-09-24T11:31:40;5.57;;;4.53;;
29500;SDS011;16450;50.288;10.966;2022-09-24T11:35:18;6.37;;;4.63;;
29500;SDS011;16450;50.288;10.966;2022-09-24T11:38:52;5.93;;;4.53;;
29500;SDS011;16450;50.288;10.966;2022-09-24T11:52:09;7.97;;;4.40;;
29500;SDS011;16450;50.288;10.966;2022-09-24T11:58:39;6.03;;;4.03;;
29500;SDS011;16450;50.288;10.966;2022-09-24T12:01:45;5.50;;;4.30;;
29500;SDS011;16450;50.288;10.966;2022-09-24T12:05:14;8.00;;;4.07;;
29500;SDS011;16450;50.288;10.966;2022-09-24T12:08:40;5.47;;;4.10;;
29500;SDS011;16450;50.288;10.966;2022-09-24T12:11:55;6.70;;;4.40;;
29500;SDS011;16450;50.288;10.966;2022-09-24T12:15:12;6.67;;;3.90;;
29500;SDS011;16450;50.288;10.966;2022-09-24T12:18:26;6.27;;;4.07;;
29500;SDS011;16450;50.288;10.966;2022-09-24T12:21:36;5.60;;;3.80;;
29500;SDS011;16450;50.288;10.966;2022-09-24T12:24:52;4.63;;;3.57;;
29500;SDS011;16450;50.288;10.966;2022-09-24T12:27:57;4.73;;;3.90;;
29500;SDS011;16450;50.288;10.966;2022-09-24T12:30:59;3.73;;;3.10;;
29500;SDS011;16450;50.288;10.966;2022-09-24T12:34:37;4.27;;;3.30;;
29500;SDS011;16450;50.288;10.966;2022-09-24T12:37:46;3.40;;;3.07;;
29500;SDS011;16450;50.288;10.966;2022-09-24T12:44:17;6.27;;;3.33;;
29500;SDS011;16450;50.288;10.966;2022-09-24T12:47:33;3.63;;;3.20;;
29500;SDS011;16450;50.288;10.966;2022-09-24T12:50:44;6.43;;;3.43;;
29500;SDS011;16450;50.288;10.966;2022-09-24T12:53:58;5.37;;;3.30;;
29500;SDS011;16450;50.288;10.966;2022-09-24T13:03:36;5.80;;;3.13;;
29500;SDS011;16450;50.288;10.966;2022-09-24T13:06:38;4.27;;;2.97;;
29500;SDS011;16450;50.288;10.966;2022-09-24T13:09:39;5.23;;;2.83;;
29500;SDS011;16450;50.288;10.966;2022-09-24T13:12:40;3.20;;;2.80;;
29500;SDS011;16450;50.288;10.966;2022-09-24T13:15:42;3.43;;;2.93;;
29500;SDS011;16450;50.288;10.966;2022-09-24T13:18:50;3.70;;;3.10;;
29500;SDS011;16450;50.288;10.966;2022-09-24T13:21:54;3.13;;;2.70;;
29500;SDS011;16450;50.288;10.966;2022-09-24T13:25:08;4.30;;;2.80;;
29500;SDS011;16450;50.288;10.966;2022-09-24T13:28:26;4.10;;;2.80;;
29500;SDS011;16450;50.288;10.966;2022-09-24T13:31:43;4.37;;;3.07;;
29500;SDS011;16450;50.288;10.966;2022-09-24T13:34:47;4.10;;;3.20;;
29500;SDS011;16450;50.288;10.966;2022-09-24T13:37:56;5.47;;;3.20;;
29500;SDS011;16450;50.288;10.966;2022-09-24T13:41:19;4.20;;;2.90;;
29500;SDS011;16450;50.288;10.966;2022-09-24T13:47:56;5.17;;;3.10;;
29500;SDS011;16450;50.288;10.966;2022-09-24T13:50:57;5.67;;;3.40;;
29500;SDS011;16450;50.288;10.966;2022-09-24T13:57:17;4.97;;;3.10;;
29500;SDS011;16450;50.288;10.966;2022-09-24T14:00:26;4.33;;;2.80;;
29500;SDS011;16450;50.288;10.966;2022-09-24T14:03:29;4.13;;;3.30;;
29500;SDS011;16450;50.288;10.966;2022-09-24T14:06:37;5.23;;;3.13;;
29500;SDS011;16450;50.288;10.966;2022-09-24T14:09:41;5.00;;;3.50;;
29500;SDS011;16450;50.288;10.966;2022-09-24T14:12:46;4.10;;;3.10;;
29500;SDS011;16450;50.288;10.966;2022-09-24T14:15:58;5.33;;;2.53;;
29500;SDS011;16450;50.288;10.966;2022-09-24T14:19:02;3.97;;;2.80;;
29500;SDS011;16450;50.288;10.966;2022-09-24T14:22:05;3.53;;;3.10;;
29500;SDS011;16450;50.288;10.966;2022-09-24T14:25:16;6.63;;;2.93;;
29500;SDS011;16450;50.288;10.966;2022-09-24T14:28:24;4.13;;;2.73;;
29500;SDS011;16450;50.288;10.966;2022-09-24T14:31:25;3.43;;;3.10;;
29500;SDS011;16450;50.288;10.966;2022-09-24T14:34:36;3.70;;;3.33;;
29500;SDS011;16450;50.288;10.966;2022-09-24T14:37:39;3.63;;;2.80;;
29500;SDS011;16450;50.288;10.966;2022-09-24T14:40:58;3.27;;;2.97;;
29500;SDS011;16450;50.288;10.966;2022-09-24T14:44:01;4.50;;;2.70;;
29500;SDS011;16450;50.288;10.966;2022-09-24T14:47:18;3.57;;;2.80;;
29500;SDS011;16450;50.288;10.966;2022-09-24T14:53:35;3.40;;;3.10;;
29500;SDS011;16450;50.288;10.966;2022-09-24T14:56:36;4.03;;;3.00;;
29500;SDS011;16450;50.288;10.966;2022-09-24T14:59:38;3.67;;;2.90;;
29500;SDS011;16450;50.288;10.966;2022-09-24T15:02:40;3.83;;;2.90;;
29500;SDS011;16450;50.288;10.966;2022-09-24T15:05:41;4.90;;;3.17;;
29500;SDS011;16450;50.288;10.966;2022-09-24T15:08:50;6.77;;;4.83;;
29500;SDS011;16450;50.288;10.966;2022-09-24T15:12:06;5.07;;;3.57;;
29500;SDS011;16450;50.288;10.966;2022-09-24T15:18:18;6.97;;;4.10;;
29500;SDS011;16450;50.288;10.966;2022-09-24T15:21:21;4.20;;;3.33;;
29500;SDS011;16450;50.288;10.966;2022-09-24T15:24:22;3.83;;;3.07;;
29500;SDS011;16450;50.288;10.966;2022-09-24T15:27:25;4.10;;;2.93;;
29500;SDS011;16450;50.288;10.966;2022-09-24T15:30:28;5.57;;;3.93;;
29500;SDS011;16450;50.288;10.966;2022-09-24T15:33:28;8.03;;;4.90;;
29500;SDS011;16450;50.288;10.966;2022-09-24T15:36:29;5.77;;;4.17;;
29500;SDS011;16450;50.288;10.966;2022-09-24T15:39:30;5.80;;;3.73;;
29500;SDS011;16450;50.288;10.966;2022-09-24T15:42:31;5.10;;;3.73;;
29500;SDS011;16450;50.288;10.966;2022-09-24T15:45:32;4.03;;;2.90;;
29500;SDS011;16450;50.288;10.966;2022-09-24T15:48:32;4.87;;;3.60;;
29500;SDS011;16450;50.288;10.966;2022-09-24T15:51:33;4.83;;;3.27;;
29500;SDS011;16450;50.288;10.966;2022-09-24T15:54:33;3.20;;;2.87;;
29500;SDS011;16450;50.288;10.966;2022-09-24T15:57:34;4.20;;;3.20;;
29500;SDS011;16450;50.288;10.966;2022-09-24T16:00:34;5.30;;;3.73;;
29500;SDS011;16450;50.288;10.966;2022-09-24T16:03:35;5.60;;;3.40;;
29500;SDS011;16450;50.288;10.966;2022-09-24T16:06:36;4.90;;;3.40;;
29500;SDS011;16450;50.288;10.966;2022-09-24T16:09:37;4.37;;;2.80;;
29500;SDS011;16450;50.288;10.966;2022-09-24T16:12:38;4.70;;;3.27;;
29500;SDS011;16450;50.288;10.966;2022-09-24T16:15:41;5.33;;;3.30;;
29500;SDS011;16450;50.288;10.966;2022-09-24T16:18:41;6.47;;;3.43;;
29500;SDS011;16450;50.288;10.966;2022-09-24T16:21:42;4.53;;;3.60;;
29500;SDS011;16450;50.288;10.966;2022-09-24T16:24:43;6.27;;;3.30;;
29500;SDS011;16450;50.288;10.966;2022-09-24T16:27:43;3.67;;;3.03;;
29500;SDS011;16450;50.288;10.966;2022-09-24T16:30:44;7.37;;;4.90;;
29500;SDS011;16450;50.288;10.966;2022-09-24T16:33:44;4.80;;;4.00;;
29500;SDS011;16450;50.288;10.966;2022-09-24T16:36:45;4.13;;;3.53;;
29500;SDS011;16450;50.288;10.966;2022-09-24T16:39:46;6.17;;;4.10;;
29500;SDS011;16450;50.288;10.966;2022-09-24T16:42:47;5.63;;;3.87;;
29500;SDS011;16450;50.288;10.966;2022-09-24T16:45:47;5.50;;;3.67;;
29500;SDS011;16450;50.288;10.966;2022-09-24T16:48:48;6.03;;;4.07;;
29500;SDS011;16450;50.288;10.966;2022-09-24T16:51:49;9.03;;;4.57;;
29500;SDS011;16450;50.288;10.966;2022-09-24T16:54:49;7.87;;;5.07;;
29500;SDS011;16450;50.288;10.966;2022-09-24T16:57:50;6.77;;;5.13;;
29500;SDS011;16450;50.288;10.966;2022-09-24T17:00:51;7.30;;;5.00;;
29500;SDS011;16450;50.288;10.966;2022-09-24T17:03:56;7.10;;;4.83;;
29500;SDS011;16450;50.288;10.966;2022-09-24T17:06:57;8.00;;;5.30;;
29500;SDS011;16450;50.288;10.966;2022-09-24T17:09:58;6.60;;;4.90;;
29500;SDS011;16450;50.288;10.966;2022-09-24T17:13:17;6.13;;;4.90;;
29500;SDS011;16450;50.288;10.966;2022-09-24T17:16:18;8.83;;;4.60;;
29500;SDS011;16450;50.288;10.966;2022-09-24T17:19:18;5.27;;;3.87;;
29500;SDS011;16450;50.288;10.966;2022-09-24T17:22:19;7.37;;;4.37;;
29500;SDS011;16450;50.288;10.966;2022-09-24T17:25:19;4.90;;;3.90;;
29500;SDS011;16450;50.288;10.966;2022-09-24T17:28:20;9.00;;;5.17;;
29500;SDS011;16450;50.288;10.966;2022-09-24T17:31:21;7.80;;;5.13;;
29500;SDS011;16450;50.288;10.966;2022-09-24T17:34:23;10.07;;;6.33;;
29500;SDS011;16450;50.288;10.966;2022-09-24T17:37:23;14.37;;;7.20;;
29500;SDS011;16450;50.288;10.966;2022-09-24T17:40:26;10.77;;;7.50;;
29500;SDS011;16450;50.288;10.966;2022-09-24T17:43:27;10.70;;;8.00;;
29500;SDS011;16450;50.288;10.966;2022-09-24T17:46:28;10.30;;;7.80;;
29500;SDS011;16450;50.288;10.966;2022-09-24T17:49:30;11.33;;;7.93;;
29500;SDS011;16450;50.288;10.966;2022-09-24T17:52:31;11.50;;;7.73;;
29500;SDS011;16450;50.288;10.966;2022-09-24T17:55:31;12.27;;;8.97;;
29500;SDS011;16450;50.288;10.966;2022-09-24T17:58:36;14.80;;;8.80;;
29500;SDS011;16450;50.288;10.966;2022-09-24T18:01:38;14.23;;;7.17;;
29500;SDS011;16450;50.288;10.966;2022-09-24T18:04:40;12.33;;;7.33;;
29500;SDS011;16450;50.288;10.966;2022-09-24T18:07:40;10.27;;;7.33;;
29500;SDS011;16450;50.288;10.966;2022-09-24T18:10:41;12.77;;;9.00;;
29500;SDS011;16450;50.288;10.966;2022-09-24T18:13:41;15.07;;;9.97;;
29500;SDS011;16450;50.288;10.966;2022-09-24T18:16:43;13.93;;;10.03;;
29500;SDS011;16450;50.288;10.966;2022-09-24T18:19:44;13.57;;;9.80;;
29500;SDS011;16450;50.288;10.966;2022-09-24T18:22:45;17.80;;;9.73;;
29500;SDS011;16450;50.288;10.966;2022-09-24T18:25:45;12.63;;;9.70;;
29500;SDS011;16450;50.288;10.966;2022-09-24T18:31:51;13.40;;;8.97;;
29500;SDS011;16450;50.288;10.966;2022-09-24T18:34:52;12.90;;;8.70;;
29500;SDS011;16450;50.288;10.966;2022-09-24T18:37:52;13.17;;;8.20;;
29500;SDS011;16450;50.288;10.966;2022-09-24T18:40:53;11.57;;;7.90;;
29500;SDS011;16450;50.288;10.966;2022-09-24T18:43:54;12.43;;;8.30;;
29500;SDS011;16450;50.288;10.966;2022-09-24T18:46:57;9.20;;;7.13;;
29500;SDS011;16450;50.288;10.966;2022-09-24T18:49:58;9.63;;;6.83;;
29500;SDS011;16450;50.288;10.966;2022-09-24T18:52:58;9.37;;;6.70;;
29500;SDS011;16450;50.288;10.966;2022-09-24T18:56:05;9.40;;;6.57;;
29500;SDS011;16450;50.288;10.966;2022-09-24T18:59:11;8.60;;;6.40;;
29500;SDS011;16450;50.288;10.966;2022-09-24T19:02:13;9.43;;;7.00;;
29500;SDS011;16450;50.288;10.966;2022-09-24T19:05:13;9.93;;;6.63;;
29500;SDS011;16450;50.288;10.966;2022-09-24T19:08:14;8.33;;;6.30;;
29500;SDS011;16450;50.288;10.966;2022-09-24T19:11:15;9.53;;;6.33;;
29500;SDS011;16450;50.288;10.966;2022-09-24T19:14:17;7.87;;;6.87;;
29500;SDS011;16450;50.288;10.966;2022-09-24T19:17:17;8.57;;;6.53;;
29500;SDS011;16450;50.288;10.966;2022-09-24T19:20:19;8.33;;;6.27;;
29500;SDS011;16450;50.288;10.966;2022-09-24T19:23:20;10.73;;;6.10;;
29500;SDS011;16450;50.288;10.966;2022-09-24T19:26:21;12.57;;;9.70;;
29500;SDS011;16450;50.288;10.966;2022-09-24T19:29:24;11.70;;;8.83;;
29500;SDS011;16450;50.288;10.966;2022-09-24T19:32:28;11.57;;;8.60;;
29500;SDS011;16450;50.288;10.966;2022-09-24T19:35:28;11.93;;;7.50;;
29500;SDS011;16450;50.288;10.966;2022-09-24T19:38:30;8.87;;;6.57;;
29500;SDS011;16450;50.288;10.966;2022-09-24T19:41:32;10.77;;;6.97;;
29500;SDS011;16450;50.288;10.966;2022-09-24T19:44:32;8.33;;;6.07;;